Pennellville, New York
Current Conditions -  °F | °C
As of 2:54 AM on Friday 31 Oct 2014 (Local Time) from KFZY Reporting Station
Clear Clear  
Wind Chill: 36°   Ceiling: Unl
Heat Index: 36°   Visibility: 9mi
Dew Point: 33°   Wind: 3mph
Humidity: 89%   Direction: 180°S
Pressure: 30.01"   Gusts: NA
Location:  43.28°N, 76.27°W
Report Text: KFZY 310654Z AUTO 18003KT 9SM CLR 02/01 A3001 RMK AO2 SLP166 T00220006
Loading
Personal Weather Stations






























Interactive Weather Map
Tropical Storm Tracking
New forecast layout! Learn more

10-Day Weather Forecast

Advertisements
Track Severe Weather on mobile